sensor_id;sensor_type;location;lat;lon;timestamp;P1;durP1;ratioP1;P2;durP2;ratioP2
4634;SDS011;2330;48.158;11.816;2022-12-07T00:01:29;8.30;;;7.68;;
4634;SDS011;2330;48.158;11.816;2022-12-07T00:04:02;9.27;;;8.48;;
4634;SDS011;2330;48.158;11.816;2022-12-07T00:06:36;8.48;;;7.82;;
4634;SDS011;2330;48.158;11.816;2022-12-07T00:09:06;9.10;;;8.43;;
4634;SDS011;2330;48.158;11.816;2022-12-07T00:11:35;7.47;;;6.90;;
4634;SDS011;2330;48.158;11.816;2022-12-07T00:14:03;8.90;;;8.30;;
4634;SDS011;2330;48.158;11.816;2022-12-07T00:16:32;7.95;;;7.45;;
4634;SDS011;2330;48.158;11.816;2022-12-07T00:19:00;8.07;;;7.43;;
4634;SDS011;2330;48.158;11.816;2022-12-07T00:21:28;8.90;;;8.30;;
4634;SDS011;2330;48.158;11.816;2022-12-07T00:23:57;7.95;;;7.45;;
4634;SDS011;2330;48.158;11.816;2022-12-07T00:26:25;8.55;;;7.95;;
4634;SDS011;2330;48.158;11.816;2022-12-07T00:28:58;8.30;;;7.70;;
4634;SDS011;2330;48.158;11.816;2022-12-07T00:31:29;8.18;;;7.57;;
4634;SDS011;2330;48.158;11.816;2022-12-07T00:34:02;8.52;;;7.93;;
4634;SDS011;2330;48.158;11.816;2022-12-07T00:36:28;9.23;;;8.55;;
4634;SDS011;2330;48.158;11.816;2022-12-07T00:38:56;8.68;;;8.07;;
4634;SDS011;2330;48.158;11.816;2022-12-07T00:41:27;8.70;;;8.05;;
4634;SDS011;2330;48.158;11.816;2022-12-07T00:43:55;8.82;;;8.15;;
4634;SDS011;2330;48.158;11.816;2022-12-07T00:46:22;8.75;;;8.15;;
4634;SDS011;2330;48.158;11.816;2022-12-07T00:48:50;10.30;;;8.30;;
4634;SDS011;2330;48.158;11.816;2022-12-07T00:51:20;8.35;;;7.75;;
4634;SDS011;2330;48.158;11.816;2022-12-07T00:53:48;8.25;;;7.70;;
4634;SDS011;2330;48.158;11.816;2022-12-07T00:56:16;8.30;;;7.70;;
4634;SDS011;2330;48.158;11.816;2022-12-07T00:59:01;8.15;;;7.55;;
4634;SDS011;2330;48.158;11.816;2022-12-07T01:01:33;8.82;;;8.18;;
4634;SDS011;2330;48.158;11.816;2022-12-07T01:04:02;8.88;;;8.27;;
4634;SDS011;2330;48.158;11.816;2022-12-07T01:06:29;8.23;;;7.72;;
4634;SDS011;2330;48.158;11.816;2022-12-07T01:08:57;8.27;;;7.68;;
4634;SDS011;2330;48.158;11.816;2022-12-07T01:11:24;8.32;;;7.72;;
4634;SDS011;2330;48.158;11.816;2022-12-07T01:13:54;7.97;;;7.43;;
4634;SDS011;2330;48.158;11.816;2022-12-07T01:16:23;9.00;;;8.40;;
4634;SDS011;2330;48.158;11.816;2022-12-07T01:18:53;8.35;;;7.75;;
4634;SDS011;2330;48.158;11.816;2022-12-07T01:21:22;7.90;;;7.30;;
4634;SDS011;2330;48.158;11.816;2022-12-07T01:23:51;9.00;;;8.30;;
4634;SDS011;2330;48.158;11.816;2022-12-07T01:26:19;8.75;;;8.05;;
4634;SDS011;2330;48.158;11.816;2022-12-07T01:28:48;8.98;;;8.35;;
4634;SDS011;2330;48.158;11.816;2022-12-07T01:31:17;7.70;;;7.20;;
4634;SDS011;2330;48.158;11.816;2022-12-07T01:33:47;8.15;;;7.55;;
4634;SDS011;2330;48.158;11.816;2022-12-07T01:36:16;8.65;;;8.05;;
4634;SDS011;2330;48.158;11.816;2022-12-07T01:38:44;9.27;;;8.57;;
4634;SDS011;2330;48.158;11.816;2022-12-07T01:41:11;8.27;;;7.65;;
4634;SDS011;2330;48.158;11.816;2022-12-07T01:46:54;8.45;;;7.70;;
4634;SDS011;2330;48.158;11.816;2022-12-07T01:52:13;8.60;;;7.95;;
4634;SDS011;2330;48.158;11.816;2022-12-07T01:54:46;9.48;;;8.77;;
4634;SDS011;2330;48.158;11.816;2022-12-07T01:57:16;9.40;;;8.70;;
4634;SDS011;2330;48.158;11.816;2022-12-07T01:59:46;9.13;;;8.43;;
4634;SDS011;2330;48.158;11.816;2022-12-07T02:02:18;8.43;;;7.82;;
4634;SDS011;2330;48.158;11.816;2022-12-07T02:05:01;8.40;;;7.80;;
4634;SDS011;2330;48.158;11.816;2022-12-07T02:07:30;10.07;;;9.30;;
4634;SDS011;2330;48.158;11.816;2022-12-07T02:10:11;9.80;;;9.00;;
4634;SDS011;2330;48.158;11.816;2022-12-07T02:12:46;8.27;;;7.68;;
4634;SDS011;2330;48.158;11.816;2022-12-07T02:15:16;9.02;;;8.30;;
4634;SDS011;2330;48.158;11.816;2022-12-07T02:17:50;10.65;;;9.75;;
4634;SDS011;2330;48.158;11.816;2022-12-07T02:20:47;8.63;;;8.02;;
4634;SDS011;2330;48.158;11.816;2022-12-07T02:23:40;8.80;;;8.15;;
4634;SDS011;2330;48.158;11.816;2022-12-07T02:29:20;10.30;;;9.55;;
4634;SDS011;2330;48.158;11.816;2022-12-07T02:32:04;10.80;;;10.00;;
4634;SDS011;2330;48.158;11.816;2022-12-07T02:34:53;10.50;;;9.60;;
4634;SDS011;2330;48.158;11.816;2022-12-07T02:37:29;10.75;;;9.95;;
4634;SDS011;2330;48.158;11.816;2022-12-07T02:40:14;11.25;;;10.43;;
4634;SDS011;2330;48.158;11.816;2022-12-07T02:42:45;10.98;;;10.07;;
4634;SDS011;2330;48.158;11.816;2022-12-07T02:45:17;11.10;;;10.20;;
4634;SDS011;2330;48.158;11.816;2022-12-07T02:47:48;11.18;;;10.27;;
4634;SDS011;2330;48.158;11.816;2022-12-07T02:50:19;11.55;;;10.55;;
4634;SDS011;2330;48.158;11.816;2022-12-07T02:52:47;10.00;;;9.25;;
4634;SDS011;2330;48.158;11.816;2022-12-07T02:55:14;12.43;;;11.40;;
4634;SDS011;2330;48.158;11.816;2022-12-07T02:57:49;11.23;;;10.32;;
4634;SDS011;2330;48.158;11.816;2022-12-07T03:00:33;12.25;;;11.23;;
4634;SDS011;2330;48.158;11.816;2022-12-07T03:03:10;11.60;;;10.60;;
4634;SDS011;2330;48.158;11.816;2022-12-07T03:08:33;11.68;;;10.68;;
4634;SDS011;2330;48.158;11.816;2022-12-07T03:11:10;11.45;;;10.50;;
4634;SDS011;2330;48.158;11.816;2022-12-07T03:14:01;10.77;;;9.68;;
4634;SDS011;2330;48.158;11.816;2022-12-07T03:16:41;10.40;;;9.55;;
4634;SDS011;2330;48.158;11.816;2022-12-07T03:19:21;10.73;;;9.93;;
4634;SDS011;2330;48.158;11.816;2022-12-07T03:21:55;9.68;;;8.88;;
4634;SDS011;2330;48.158;11.816;2022-12-07T03:24:27;11.73;;;10.73;;
4634;SDS011;2330;48.158;11.816;2022-12-07T03:27:16;11.38;;;10.48;;
4634;SDS011;2330;48.158;11.816;2022-12-07T03:30:03;10.10;;;9.38;;
4634;SDS011;2330;48.158;11.816;2022-12-07T03:35:16;11.95;;;10.95;;
4634;SDS011;2330;48.158;11.816;2022-12-07T03:41:00;10.95;;;10.15;;
4634;SDS011;2330;48.158;11.816;2022-12-07T03:43:32;10.80;;;10.00;;
4634;SDS011;2330;48.158;11.816;2022-12-07T03:48:33;10.38;;;9.55;;
4634;SDS011;2330;48.158;11.816;2022-12-07T03:53:45;9.95;;;9.25;;
4634;SDS011;2330;48.158;11.816;2022-12-07T03:56:16;10.18;;;9.27;;
4634;SDS011;2330;48.158;11.816;2022-12-07T03:58:44;10.65;;;9.80;;
4634;SDS011;2330;48.158;11.816;2022-12-07T04:01:12;10.65;;;9.85;;
4634;SDS011;2330;48.158;11.816;2022-12-07T04:03:39;10.52;;;9.70;;
4634;SDS011;2330;48.158;11.816;2022-12-07T04:06:05;8.98;;;8.27;;
4634;SDS011;2330;48.158;11.816;2022-12-07T04:08:32;10.82;;;9.88;;
4634;SDS011;2330;48.158;11.816;2022-12-07T04:10:59;9.57;;;8.88;;
4634;SDS011;2330;48.158;11.816;2022-12-07T04:13:26;10.88;;;10.07;;
4634;SDS011;2330;48.158;11.816;2022-12-07T04:15:53;11.02;;;10.13;;
4634;SDS011;2330;48.158;11.816;2022-12-07T04:18:20;11.07;;;10.10;;
4634;SDS011;2330;48.158;11.816;2022-12-07T04:20:47;11.05;;;10.20;;
4634;SDS011;2330;48.158;11.816;2022-12-07T04:23:14;12.05;;;11.05;;
4634;SDS011;2330;48.158;11.816;2022-12-07T04:25:43;11.25;;;10.43;;
4634;SDS011;2330;48.158;11.816;2022-12-07T04:28:09;11.75;;;10.85;;
4634;SDS011;2330;48.158;11.816;2022-12-07T04:30:36;11.10;;;10.20;;
4634;SDS011;2330;48.158;11.816;2022-12-07T04:33:03;11.75;;;10.68;;
4634;SDS011;2330;48.158;11.816;2022-12-07T04:35:30;11.55;;;10.65;;
4634;SDS011;2330;48.158;11.816;2022-12-07T04:37:56;11.13;;;10.32;;
4634;SDS011;2330;48.158;11.816;2022-12-07T04:40:23;10.88;;;10.07;;
4634;SDS011;2330;48.158;11.816;2022-12-07T04:42:50;11.98;;;11.05;;
4634;SDS011;2330;48.158;11.816;2022-12-07T04:45:16;12.07;;;11.07;;
4634;SDS011;2330;48.158;11.816;2022-12-07T04:47:43;11.15;;;10.27;;
4634;SDS011;2330;48.158;11.816;2022-12-07T04:50:10;12.25;;;11.32;;
4634;SDS011;2330;48.158;11.816;2022-12-07T04:52:37;13.13;;;12.02;;
4634;SDS011;2330;48.158;11.816;2022-12-07T04:55:04;12.20;;;11.27;;
4634;SDS011;2330;48.158;11.816;2022-12-07T04:57:31;14.63;;;13.43;;
4634;SDS011;2330;48.158;11.816;2022-12-07T04:59:57;11.95;;;11.05;;
4634;SDS011;2330;48.158;11.816;2022-12-07T05:02:24;12.57;;;11.65;;
4634;SDS011;2330;48.158;11.816;2022-12-07T05:04:51;12.65;;;11.65;;
4634;SDS011;2330;48.158;11.816;2022-12-07T05:07:18;12.65;;;11.65;;
4634;SDS011;2330;48.158;11.816;2022-12-07T05:09:44;12.63;;;11.65;;
4634;SDS011;2330;48.158;11.816;2022-12-07T05:12:11;12.15;;;11.25;;
4634;SDS011;2330;48.158;11.816;2022-12-07T05:14:38;12.30;;;11.38;;
4634;SDS011;2330;48.158;11.816;2022-12-07T05:17:05;12.52;;;11.52;;
4634;SDS011;2330;48.158;11.816;2022-12-07T05:19:31;12.85;;;11.85;;
4634;SDS011;2330;48.158;11.816;2022-12-07T05:21:58;14.18;;;13.07;;
4634;SDS011;2330;48.158;11.816;2022-12-07T05:24:25;12.30;;;11.38;;
4634;SDS011;2330;48.158;11.816;2022-12-07T05:26:52;13.68;;;12.57;;
4634;SDS011;2330;48.158;11.816;2022-12-07T05:29:18;15.38;;;14.07;;
4634;SDS011;2330;48.158;11.816;2022-12-07T05:31:45;14.07;;;12.98;;
4634;SDS011;2330;48.158;11.816;2022-12-07T05:34:12;13.63;;;12.40;;
4634;SDS011;2330;48.158;11.816;2022-12-07T05:36:39;14.20;;;13.00;;
4634;SDS011;2330;48.158;11.816;2022-12-07T05:39:06;12.65;;;11.65;;
4634;SDS011;2330;48.158;11.816;2022-12-07T05:41:33;13.07;;;11.98;;
4634;SDS011;2330;48.158;11.816;2022-12-07T05:44:18;13.13;;;12.13;;
4634;SDS011;2330;48.158;11.816;2022-12-07T05:46:45;13.20;;;12.18;;
4634;SDS011;2330;48.158;11.816;2022-12-07T05:49:12;14.02;;;12.93;;
4634;SDS011;2330;48.158;11.816;2022-12-07T05:51:39;13.23;;;12.07;;
4634;SDS011;2330;48.158;11.816;2022-12-07T05:54:05;12.45;;;11.45;;
4634;SDS011;2330;48.158;11.816;2022-12-07T05:56:32;13.05;;;11.95;;
4634;SDS011;2330;48.158;11.816;2022-12-07T05:58:59;12.93;;;11.82;;
4634;SDS011;2330;48.158;11.816;2022-12-07T06:01:45;15.43;;;14.13;;
4634;SDS011;2330;48.158;11.816;2022-12-07T06:04:11;15.77;;;14.48;;
4634;SDS011;2330;48.158;11.816;2022-12-07T06:06:38;14.35;;;13.20;;
4634;SDS011;2330;48.158;11.816;2022-12-07T06:09:05;14.82;;;13.63;;
4634;SDS011;2330;48.158;11.816;2022-12-07T06:11:32;14.70;;;13.50;;
4634;SDS011;2330;48.158;11.816;2022-12-07T06:14:18;14.25;;;13.15;;
4634;SDS011;2330;48.158;11.816;2022-12-07T06:16:45;13.75;;;12.65;;
4634;SDS011;2330;48.158;11.816;2022-12-07T06:19:12;13.35;;;12.35;;
4634;SDS011;2330;48.158;11.816;2022-12-07T06:21:38;15.40;;;14.20;;
4634;SDS011;2330;48.158;11.816;2022-12-07T06:24:05;14.82;;;13.70;;
4634;SDS011;2330;48.158;11.816;2022-12-07T06:26:33;15.20;;;13.95;;
4634;SDS011;2330;48.158;11.816;2022-12-07T06:28:59;13.27;;;12.27;;
4634;SDS011;2330;48.158;11.816;2022-12-07T06:31:26;14.48;;;13.18;;
4634;SDS011;2330;48.158;11.816;2022-12-07T06:34:03;13.52;;;12.55;;
4634;SDS011;2330;48.158;11.816;2022-12-07T06:36:31;13.60;;;12.50;;
4634;SDS011;2330;48.158;11.816;2022-12-07T06:38:58;13.07;;;12.07;;
4634;SDS011;2330;48.158;11.816;2022-12-07T06:41:24;13.60;;;12.50;;
4634;SDS011;2330;48.158;11.816;2022-12-07T06:43:51;13.40;;;12.32;;
4634;SDS011;2330;48.158;11.816;2022-12-07T06:46:21;13.48;;;12.38;;
4634;SDS011;2330;48.158;11.816;2022-12-07T06:48:49;13.73;;;12.63;;
4634;SDS011;2330;48.158;11.816;2022-12-07T06:51:16;13.35;;;12.25;;
4634;SDS011;2330;48.158;11.816;2022-12-07T06:53:43;14.10;;;12.90;;
4634;SDS011;2330;48.158;11.816;2022-12-07T06:56:10;15.23;;;13.63;;
4634;SDS011;2330;48.158;11.816;2022-12-07T06:58:36;14.02;;;12.77;;
4634;SDS011;2330;48.158;11.816;2022-12-07T07:01:08;13.85;;;12.73;;
4634;SDS011;2330;48.158;11.816;2022-12-07T07:04:18;12.70;;;11.75;;
4634;SDS011;2330;48.158;11.816;2022-12-07T07:07:28;12.00;;;11.20;;
4634;SDS011;2330;48.158;11.816;2022-12-07T07:10:40;12.52;;;11.52;;
4634;SDS011;2330;48.158;11.816;2022-12-07T07:13:51;13.73;;;12.50;;
4634;SDS011;2330;48.158;11.816;2022-12-07T07:17:02;12.25;;;11.35;;
4634;SDS011;2330;48.158;11.816;2022-12-07T07:20:14;12.00;;;10.98;;
4634;SDS011;2330;48.158;11.816;2022-12-07T07:23:28;12.07;;;11.27;;
4634;SDS011;2330;48.158;11.816;2022-12-07T07:26:45;12.40;;;11.45;;
4634;SDS011;2330;48.158;11.816;2022-12-07T07:29:57;12.95;;;12.02;;
4634;SDS011;2330;48.158;11.816;2022-12-07T07:33:09;13.25;;;12.15;;
4634;SDS011;2330;48.158;11.816;2022-12-07T07:36:21;12.93;;;11.93;;
4634;SDS011;2330;48.158;11.816;2022-12-07T07:39:31;12.93;;;11.93;;
4634;SDS011;2330;48.158;11.816;2022-12-07T07:42:42;12.60;;;11.70;;
4634;SDS011;2330;48.158;11.816;2022-12-07T07:45:54;13.80;;;12.80;;
4634;SDS011;2330;48.158;11.816;2022-12-07T07:49:04;13.73;;;12.73;;
4634;SDS011;2330;48.158;11.816;2022-12-07T07:52:16;12.82;;;11.82;;
4634;SDS011;2330;48.158;11.816;2022-12-07T07:55:26;13.82;;;12.65;;
4634;SDS011;2330;48.158;11.816;2022-12-07T07:58:37;12.65;;;11.65;;
4634;SDS011;2330;48.158;11.816;2022-12-07T08:01:49;12.68;;;11.57;;
4634;SDS011;2330;48.158;11.816;2022-12-07T08:05:01;12.65;;;11.70;;
4634;SDS011;2330;48.158;11.816;2022-12-07T08:08:12;12.63;;;11.73;;
4634;SDS011;2330;48.158;11.816;2022-12-07T08:11:23;12.00;;;11.00;;
4634;SDS011;2330;48.158;11.816;2022-12-07T08:14:34;13.20;;;11.75;;
4634;SDS011;2330;48.158;11.816;2022-12-07T08:17:45;13.55;;;12.02;;
4634;SDS011;2330;48.158;11.816;2022-12-07T08:21:00;13.63;;;12.57;;
4634;SDS011;2330;48.158;11.816;2022-12-07T11:47:22;7.53;;;6.93;;
4634;SDS011;2330;48.158;11.816;2022-12-07T11:53:00;7.73;;;7.03;;
4634;SDS011;2330;48.158;11.816;2022-12-07T11:55:49;7.60;;;7.10;;
4634;SDS011;2330;48.158;11.816;2022-12-07T12:04:13;7.10;;;6.50;;
4634;SDS011;2330;48.158;11.816;2022-12-07T12:07:22;6.50;;;6.00;;
4634;SDS011;2330;48.158;11.816;2022-12-07T12:10:15;5.97;;;5.57;;
4634;SDS011;2330;48.158;11.816;2022-12-07T12:16:14;6.93;;;6.23;;
4634;SDS011;2330;48.158;11.816;2022-12-07T12:21:35;8.90;;;7.07;;
4634;SDS011;2330;48.158;11.816;2022-12-07T12:24:03;8.40;;;7.60;;
4634;SDS011;2330;48.158;11.816;2022-12-07T12:26:37;8.20;;;7.60;;
4634;SDS011;2330;48.158;11.816;2022-12-07T12:29:06;8.50;;;7.80;;
4634;SDS011;2330;48.158;11.816;2022-12-07T12:31:46;8.67;;;8.07;;
4634;SDS011;2330;48.158;11.816;2022-12-07T12:37:42;7.43;;;6.90;;
4634;SDS011;2330;48.158;11.816;2022-12-07T12:42:51;8.70;;;7.90;;
4634;SDS011;2330;48.158;11.816;2022-12-07T12:45:29;8.57;;;7.77;;
4634;SDS011;2330;48.158;11.816;2022-12-07T12:50:35;8.07;;;7.47;;
4634;SDS011;2330;48.158;11.816;2022-12-07T12:53:05;7.80;;;7.20;;
4634;SDS011;2330;48.158;11.816;2022-12-07T13:00:44;7.37;;;6.77;;
4634;SDS011;2330;48.158;11.816;2022-12-07T13:03:24;6.80;;;6.30;;
4634;SDS011;2330;48.158;11.816;2022-12-07T13:08:43;8.20;;;7.50;;
4634;SDS011;2330;48.158;11.816;2022-12-07T13:11:17;8.23;;;7.40;;
4634;SDS011;2330;48.158;11.816;2022-12-07T13:13:44;8.30;;;7.70;;
4634;SDS011;2330;48.158;11.816;2022-12-07T13:18:38;8.77;;;8.07;;
4634;SDS011;2330;48.158;11.816;2022-12-07T13:26:20;9.23;;;8.43;;
4634;SDS011;2330;48.158;11.816;2022-12-07T13:29:13;9.27;;;8.57;;
4634;SDS011;2330;48.158;11.816;2022-12-07T13:31:43;9.33;;;8.63;;
4634;SDS011;2330;48.158;11.816;2022-12-07T13:34:31;8.37;;;7.70;;
4634;SDS011;2330;48.158;11.816;2022-12-07T13:40:00;8.20;;;7.40;;
4634;SDS011;2330;48.158;11.816;2022-12-07T13:42:38;8.83;;;8.10;;
4634;SDS011;2330;48.158;11.816;2022-12-07T13:48:22;9.95;;;9.15;;
4634;SDS011;2330;48.158;11.816;2022-12-07T13:50:56;8.80;;;8.10;;
4634;SDS011;2330;48.158;11.816;2022-12-07T13:53:24;8.33;;;7.73;;
4634;SDS011;2330;48.158;11.816;2022-12-07T13:55:54;8.50;;;7.80;;
4634;SDS011;2330;48.158;11.816;2022-12-07T13:58:21;8.35;;;7.55;;
4634;SDS011;2330;48.158;11.816;2022-12-07T14:00:49;9.40;;;8.60;;
4634;SDS011;2330;48.158;11.816;2022-12-07T14:05:44;9.27;;;8.57;;
4634;SDS011;2330;48.158;11.816;2022-12-07T14:10:41;9.40;;;8.70;;
4634;SDS011;2330;48.158;11.816;2022-12-07T14:13:36;9.25;;;8.57;;
4634;SDS011;2330;48.158;11.816;2022-12-07T14:16:15;10.40;;;9.50;;
4634;SDS011;2330;48.158;11.816;2022-12-07T14:18:48;9.68;;;8.88;;
4634;SDS011;2330;48.158;11.816;2022-12-07T14:21:16;9.45;;;8.75;;
4634;SDS011;2330;48.158;11.816;2022-12-07T14:23:44;10.10;;;9.30;;
4634;SDS011;2330;48.158;11.816;2022-12-07T14:26:15;9.75;;;9.00;;
4634;SDS011;2330;48.158;11.816;2022-12-07T14:28:46;9.97;;;9.17;;
4634;SDS011;2330;48.158;11.816;2022-12-07T14:31:14;9.70;;;8.95;;
4634;SDS011;2330;48.158;11.816;2022-12-07T14:33:58;8.77;;;7.97;;
4634;SDS011;2330;48.158;11.816;2022-12-07T14:36:25;9.68;;;8.93;;
4634;SDS011;2330;48.158;11.816;2022-12-07T14:38:52;10.17;;;9.37;;
4634;SDS011;2330;48.158;11.816;2022-12-07T14:41:22;9.32;;;8.63;;
4634;SDS011;2330;48.158;11.816;2022-12-07T14:44:11;10.10;;;9.40;;
4634;SDS011;2330;48.158;11.816;2022-12-07T14:46:50;9.63;;;8.73;;
4634;SDS011;2330;48.158;11.816;2022-12-07T14:49:37;10.95;;;10.02;;
4634;SDS011;2330;48.158;11.816;2022-12-07T14:52:04;10.88;;;9.98;;
4634;SDS011;2330;48.158;11.816;2022-12-07T14:54:57;10.45;;;9.52;;
4634;SDS011;2330;48.158;11.816;2022-12-07T14:57:24;10.02;;;9.23;;
4634;SDS011;2330;48.158;11.816;2022-12-07T14:59:51;10.85;;;9.95;;
4634;SDS011;2330;48.158;11.816;2022-12-07T15:02:17;11.70;;;10.80;;
4634;SDS011;2330;48.158;11.816;2022-12-07T15:04:44;11.20;;;10.27;;
4634;SDS011;2330;48.158;11.816;2022-12-07T15:07:17;9.73;;;9.00;;
4634;SDS011;2330;48.158;11.816;2022-12-07T15:09:46;9.88;;;9.07;;
4634;SDS011;2330;48.158;11.816;2022-12-07T15:12:13;10.38;;;9.52;;
4634;SDS011;2330;48.158;11.816;2022-12-07T15:14:40;10.75;;;9.75;;
4634;SDS011;2330;48.158;11.816;2022-12-07T15:17:09;10.52;;;9.63;;
4634;SDS011;2330;48.158;11.816;2022-12-07T15:19:51;11.00;;;10.10;;
4634;SDS011;2330;48.158;11.816;2022-12-07T15:22:18;11.52;;;10.52;;
4634;SDS011;2330;48.158;11.816;2022-12-07T15:24:44;10.75;;;9.75;;
4634;SDS011;2330;48.158;11.816;2022-12-07T15:27:11;11.00;;;10.10;;
4634;SDS011;2330;48.158;11.816;2022-12-07T15:29:38;11.20;;;10.20;;
4634;SDS011;2330;48.158;11.816;2022-12-07T15:32:05;12.18;;;10.45;;
4634;SDS011;2330;48.158;11.816;2022-12-07T15:34:32;15.25;;;10.57;;
4634;SDS011;2330;48.158;11.816;2022-12-07T15:37:06;13.80;;;10.52;;
4634;SDS011;2330;48.158;11.816;2022-12-07T15:39:33;9.20;;;8.48;;
4634;SDS011;2330;48.158;11.816;2022-12-07T15:42:00;12.27;;;11.10;;
4634;SDS011;2330;48.158;11.816;2022-12-07T15:44:27;12.82;;;11.60;;
4634;SDS011;2330;48.158;11.816;2022-12-07T15:47:12;11.40;;;10.43;;
4634;SDS011;2330;48.158;11.816;2022-12-07T15:49:39;11.80;;;10.73;;
4634;SDS011;2330;48.158;11.816;2022-12-07T15:52:05;11.35;;;10.27;;
4634;SDS011;2330;48.158;11.816;2022-12-07T15:54:32;14.00;;;12.73;;
4634;SDS011;2330;48.158;11.816;2022-12-07T15:56:59;11.98;;;10.90;;
4634;SDS011;2330;48.158;11.816;2022-12-07T15:59:26;12.20;;;11.10;;
4634;SDS011;2330;48.158;11.816;2022-12-07T16:01:54;12.95;;;11.85;;
4634;SDS011;2330;48.158;11.816;2022-12-07T16:04:21;12.70;;;11.60;;
4634;SDS011;2330;48.158;11.816;2022-12-07T16:06:48;11.43;;;10.32;;
4634;SDS011;2330;48.158;11.816;2022-12-07T16:09:17;12.27;;;11.15;;
4634;SDS011;2330;48.158;11.816;2022-12-07T16:11:43;11.75;;;10.65;;
4634;SDS011;2330;48.158;11.816;2022-12-07T16:14:10;11.82;;;10.75;;
4634;SDS011;2330;48.158;11.816;2022-12-07T16:16:37;12.20;;;11.10;;
4634;SDS011;2330;48.158;11.816;2022-12-07T16:19:07;12.15;;;11.15;;
4634;SDS011;2330;48.158;11.816;2022-12-07T16:21:34;11.75;;;10.75;;
4634;SDS011;2330;48.158;11.816;2022-12-07T16:24:01;11.60;;;10.57;;
4634;SDS011;2330;48.158;11.816;2022-12-07T16:26:29;14.30;;;11.35;;
4634;SDS011;2330;48.158;11.816;2022-12-07T16:28:55;12.23;;;11.13;;
4634;SDS011;2330;48.158;11.816;2022-12-07T16:31:23;10.68;;;9.77;;
4634;SDS011;2330;48.158;11.816;2022-12-07T16:33:55;11.02;;;10.07;;
4634;SDS011;2330;48.158;11.816;2022-12-07T16:36:23;11.18;;;10.18;;
4634;SDS011;2330;48.158;11.816;2022-12-07T16:39:12;10.60;;;9.68;;
4634;SDS011;2330;48.158;11.816;2022-12-07T16:41:39;11.40;;;10.50;;
4634;SDS011;2330;48.158;11.816;2022-12-07T16:44:06;13.10;;;11.90;;
4634;SDS011;2330;48.158;11.816;2022-12-07T16:46:36;15.43;;;13.95;;
4634;SDS011;2330;48.158;11.816;2022-12-07T16:49:03;16.30;;;14.85;;
4634;SDS011;2330;48.158;11.816;2022-12-07T16:51:30;14.70;;;13.35;;
4634;SDS011;2330;48.158;11.816;2022-12-07T16:53:57;14.60;;;13.27;;
4634;SDS011;2330;48.158;11.816;2022-12-07T16:56:25;13.20;;;11.90;;
4634;SDS011;2330;48.158;11.816;2022-12-07T16:58:53;13.10;;;12.02;;
4634;SDS011;2330;48.158;11.816;2022-12-07T17:01:21;12.70;;;11.63;;
4634;SDS011;2330;48.158;11.816;2022-12-07T17:03:54;12.93;;;11.75;;
4634;SDS011;2330;48.158;11.816;2022-12-07T17:06:22;11.70;;;10.82;;
4634;SDS011;2330;48.158;11.816;2022-12-07T17:08:51;12.68;;;11.68;;
4634;SDS011;2330;48.158;11.816;2022-12-07T17:11:19;11.95;;;10.95;;
4634;SDS011;2330;48.158;11.816;2022-12-07T17:13:48;14.18;;;12.90;;
4634;SDS011;2330;48.158;11.816;2022-12-07T17:16:34;13.95;;;12.65;;
4634;SDS011;2330;48.158;11.816;2022-12-07T17:19:04;13.40;;;12.30;;
4634;SDS011;2330;48.158;11.816;2022-12-07T17:21:32;14.32;;;12.93;;
4634;SDS011;2330;48.158;11.816;2022-12-07T17:24:00;12.65;;;11.55;;
4634;SDS011;2330;48.158;11.816;2022-12-07T17:26:29;13.80;;;12.63;;
4634;SDS011;2330;48.158;11.816;2022-12-07T17:29:01;13.68;;;12.57;;
4634;SDS011;2330;48.158;11.816;2022-12-07T17:31:29;15.98;;;14.57;;
4634;SDS011;2330;48.158;11.816;2022-12-07T17:33:56;16.45;;;14.93;;
4634;SDS011;2330;48.158;11.816;2022-12-07T17:36:24;14.63;;;13.50;;
4634;SDS011;2330;48.158;11.816;2022-12-07T17:38:52;15.18;;;13.98;;
4634;SDS011;2330;48.158;11.816;2022-12-07T17:41:26;15.40;;;14.10;;
4634;SDS011;2330;48.158;11.816;2022-12-07T17:44:13;15.30;;;14.00;;
4634;SDS011;2330;48.158;11.816;2022-12-07T17:46:42;15.13;;;13.82;;
4634;SDS011;2330;48.158;11.816;2022-12-07T17:49:10;14.63;;;13.32;;
4634;SDS011;2330;48.158;11.816;2022-12-07T17:51:37;12.43;;;11.32;;
4634;SDS011;2330;48.158;11.816;2022-12-07T17:54:23;13.10;;;12.10;;
4634;SDS011;2330;48.158;11.816;2022-12-07T17:56:49;13.27;;;12.18;;
4634;SDS011;2330;48.158;11.816;2022-12-07T17:59:16;12.52;;;11.52;;
4634;SDS011;2330;48.158;11.816;2022-12-07T18:01:44;13.77;;;12.68;;
4634;SDS011;2330;48.158;11.816;2022-12-07T18:04:11;12.38;;;11.27;;
4634;SDS011;2330;48.158;11.816;2022-12-07T18:06:37;11.82;;;10.88;;
4634;SDS011;2330;48.158;11.816;2022-12-07T18:09:05;12.27;;;11.27;;
4634;SDS011;2330;48.158;11.816;2022-12-07T18:11:32;13.82;;;11.55;;
4634;SDS011;2330;48.158;11.816;2022-12-07T18:13:59;14.05;;;12.80;;
4634;SDS011;2330;48.158;11.816;2022-12-07T18:16:27;11.40;;;10.48;;
4634;SDS011;2330;48.158;11.816;2022-12-07T18:18:59;12.30;;;11.27;;
4634;SDS011;2330;48.158;11.816;2022-12-07T18:21:31;13.93;;;12.75;;
4634;SDS011;2330;48.158;11.816;2022-12-07T18:23:59;13.82;;;12.63;;
4634;SDS011;2330;48.158;11.816;2022-12-07T18:26:28;14.23;;;13.00;;
4634;SDS011;2330;48.158;11.816;2022-12-07T18:28:57;13.60;;;12.45;;
4634;SDS011;2330;48.158;11.816;2022-12-07T18:31:25;13.50;;;12.27;;
4634;SDS011;2330;48.158;11.816;2022-12-07T18:33:53;14.10;;;12.93;;
4634;SDS011;2330;48.158;11.816;2022-12-07T18:36:22;14.30;;;13.10;;
4634;SDS011;2330;48.158;11.816;2022-12-07T18:38:49;15.80;;;14.40;;
4634;SDS011;2330;48.158;11.816;2022-12-07T18:41:17;17.80;;;15.80;;
4634;SDS011;2330;48.158;11.816;2022-12-07T18:43:45;22.35;;;18.98;;
4634;SDS011;2330;48.158;11.816;2022-12-07T18:46:13;22.08;;;19.77;;
4634;SDS011;2330;48.158;11.816;2022-12-07T18:48:42;27.70;;;21.63;;
4634;SDS011;2330;48.158;11.816;2022-12-07T18:51:11;22.92;;;19.83;;
4634;SDS011;2330;48.158;11.816;2022-12-07T18:53:39;18.35;;;16.50;;
4634;SDS011;2330;48.158;11.816;2022-12-07T18:56:07;20.02;;;17.92;;
4634;SDS011;2330;48.158;11.816;2022-12-07T18:58:42;24.33;;;19.55;;
4634;SDS011;2330;48.158;11.816;2022-12-07T19:01:32;18.38;;;16.67;;
4634;SDS011;2330;48.158;11.816;2022-12-07T19:03:59;16.67;;;14.98;;
4634;SDS011;2330;48.158;11.816;2022-12-07T19:06:27;16.30;;;14.80;;
4634;SDS011;2330;48.158;11.816;2022-12-07T19:08:54;17.52;;;15.75;;
4634;SDS011;2330;48.158;11.816;2022-12-07T19:11:22;17.63;;;15.82;;
4634;SDS011;2330;48.158;11.816;2022-12-07T19:14:09;16.70;;;15.07;;
4634;SDS011;2330;48.158;11.816;2022-12-07T19:16:37;18.40;;;14.32;;
4634;SDS011;2330;48.158;11.816;2022-12-07T19:19:04;15.35;;;13.95;;
4634;SDS011;2330;48.158;11.816;2022-12-07T19:21:31;14.90;;;13.50;;
4634;SDS011;2330;48.158;11.816;2022-12-07T19:23:57;15.30;;;13.95;;
4634;SDS011;2330;48.158;11.816;2022-12-07T19:28:35;14.40;;;13.10;;
4634;SDS011;2330;48.158;11.816;2022-12-07T19:31:06;16.45;;;15.05;;
4634;SDS011;2330;48.158;11.816;2022-12-07T19:33:33;14.95;;;13.75;;
4634;SDS011;2330;48.158;11.816;2022-12-07T19:36:00;16.13;;;14.57;;
4634;SDS011;2330;48.158;11.816;2022-12-07T19:38:28;16.48;;;15.00;;
4634;SDS011;2330;48.158;11.816;2022-12-07T19:43:54;15.93;;;14.43;;
4634;SDS011;2330;48.158;11.816;2022-12-07T19:46:21;15.13;;;13.70;;
4634;SDS011;2330;48.158;11.816;2022-12-07T19:48:48;15.57;;;14.20;;
4634;SDS011;2330;48.158;11.816;2022-12-07T19:51:15;13.68;;;12.48;;
4634;SDS011;2330;48.158;11.816;2022-12-07T19:53:42;15.63;;;14.13;;
4634;SDS011;2330;48.158;11.816;2022-12-07T19:56:13;15.18;;;13.88;;
4634;SDS011;2330;48.158;11.816;2022-12-07T19:58:44;16.08;;;14.77;;
4634;SDS011;2330;48.158;11.816;2022-12-07T20:01:11;16.95;;;15.48;;
4634;SDS011;2330;48.158;11.816;2022-12-07T20:03:38;14.38;;;13.18;;